Goundi Airport

TD-0007 · 芒杜爾區, 乍得

METAR TD-0007 · Goundi Airport

15 七月 03:00 LT
1h
使用的METAR站距离机场399 km。
罗盘
风向 的 风向 200°
风: 3 kt, 1 beaufort

添加一条跑道以查看侧风和逆风信息。

添置 跑道
0 ft 1.000 2.000 3.000 4.000 5.000
Cloud Cloud
FEW 2.600
METAR FTTJ 150200Z 20003KT 7000 FEW026 26/25 Q1012 NOSIG

METAR Goundi Airport - TD-0007

Goundi Airport是,乍得中的小机场。 该机场位于纬度9,38260和经度17,38095。 这个机场没有ICAO代码,我们使用TD-0007作为参考。 机场在N Djamena FIR中。

该航空气象观测是针对N'Djamena International Airport在2024年7月15日 03:00, 当地时间进行的。

机场观察

风向为200°,速度为3 kt。

可见度为7 km。

有几云在2.600 ft的高度。 没有观察到天花板。

温度和风寒是26 °C。 露点为25 °C,相对湿度为94%。 海平面上的气压为1012 hPa (QNH)。

白天

今天,太阳从05:38升起,在18:15降落。 这适用于Goundi Airport,世界夏令时可能有所不同。 当地时间与世界标准时间之间的时差为+1 小时。 夏令时目前正在进行中。

公司介绍

我们没有关于这个机场的公司信息。

体会

到Vliegles.nl去找飞行课程,跳伞和其他飞行体验。 浏览页面,了解Goundi Airport附近所有可用的活动。 你也可以使用搜索功能来寻找你所在地附近的特定飞行课程、跳伞或其他飞行体验。

乌云

2.600 ft FEW 几云

温度 & 天气

温度 26 °C
露点 25 °C
相对湿度 94%
Kp-index 0 (0-9)

白天

日出
05:42 (1:32)
中午
12:05
日落
18:28

小工具

你想在你的网站上有一个关于Goundi Airport的当前航空天气(METAR)的小部件吗?

显示HTML代码
报告变更